createdAt,value
2023-04-12T00:00:40.227Z,7.68
2023-04-12T00:03:10.791Z,7.45
2023-04-12T00:05:38.956Z,10.52
2023-04-12T00:08:10.888Z,7.35
2023-04-12T00:10:39.212Z,10.07
2023-04-12T00:13:08.061Z,7.95
2023-04-12T00:15:38.188Z,7.25
2023-04-12T00:18:06.448Z,13.75
2023-04-12T00:20:34.506Z,8.75
2023-04-12T00:23:03.900Z,7.40
2023-04-12T00:25:32.109Z,9.55
2023-04-12T00:28:00.165Z,10.27
2023-04-12T00:30:28.320Z,8.60
2023-04-12T00:32:57.879Z,13.15
2023-04-12T00:35:28.037Z,13.07
2023-04-12T00:37:56.577Z,9.60
2023-04-12T00:40:25.050Z,11.02
2023-04-12T00:42:53.191Z,6.32
2023-04-12T00:45:22.158Z,8.75
2023-04-12T00:47:50.699Z,6.78
2023-04-12T00:50:21.309Z,13.32
2023-04-12T00:52:49.541Z,7.80
2023-04-12T00:55:18.435Z,9.68
2023-04-12T00:57:46.873Z,9.52
2023-04-12T01:00:17.211Z,8.70
2023-04-12T01:02:48.553Z,7.35
2023-04-12T01:05:22.655Z,12.13
2023-04-12T01:08:06.775Z,7.15
2023-04-12T01:10:45.029Z,8.00
2023-04-12T01:13:21.776Z,9.45
2023-04-12T01:15:59.946Z,10.30
2023-04-12T01:18:31.935Z,8.05
2023-04-12T01:21:08.012Z,6.82
2023-04-12T01:23:52.837Z,8.23
2023-04-12T01:26:34.724Z,5.05
2023-04-12T01:29:11.041Z,5.63
2023-04-12T01:31:42.324Z,6.30
2023-04-12T01:34:13.014Z,6.32
2023-04-12T01:36:43.970Z,6.10
2023-04-12T01:39:12.443Z,14.15
2023-04-12T01:41:45.480Z,6.90
2023-04-12T01:44:18.868Z,9.38
2023-04-12T01:46:49.794Z,7.18
2023-04-12T01:49:19.312Z,7.88
2023-04-12T01:51:53.938Z,7.63
2023-04-12T01:54:27.111Z,9.77
2023-04-12T01:56:59.299Z,8.32
2023-04-12T01:59:33.256Z,11.65
2023-04-12T02:02:02.375Z,7.10
2023-04-12T02:04:31.422Z,13.63
2023-04-12T02:06:59.960Z,10.30
2023-04-12T02:09:28.161Z,14.85
2023-04-12T02:11:56.489Z,13.18
2023-04-12T02:14:25.296Z,10.48
2023-04-12T02:16:55.957Z,10.60
2023-04-12T02:19:24.698Z,7.20
2023-04-12T02:21:53.951Z,10.05
2023-04-12T02:24:23.702Z,10.13
2023-04-12T02:26:55.384Z,14.23
2023-04-12T02:29:23.956Z,8.48
2023-04-12T02:31:52.686Z,9.30
2023-04-12T02:34:24.290Z,6.68
2023-04-12T02:37:00.315Z,8.18
2023-04-12T02:39:29.316Z,8.10
2023-04-12T02:41:58.797Z,7.60
2023-04-12T02:44:27.431Z,7.88
2023-04-12T02:47:21.630Z,7.00
2023-04-12T02:49:52.739Z,10.82
2023-04-12T02:52:23.539Z,9.57
2023-04-12T02:55:42.310Z,8.68
2023-04-12T02:58:13.227Z,8.30
2023-04-12T03:00:50.077Z,6.72
2023-04-12T03:03:22.627Z,7.45
2023-04-12T03:05:56.454Z,7.70
2023-04-12T03:08:25.584Z,7.28
2023-04-12T03:10:57.315Z,6.78
2023-04-12T03:13:27.497Z,11.48
2023-04-12T03:15:58.191Z,9.02
2023-04-12T03:18:33.408Z,7.20
2023-04-12T03:21:04.061Z,8.95
2023-04-12T03:23:32.714Z,6.68
2023-04-12T03:26:10.746Z,8.80
2023-04-12T03:28:39.200Z,9.63
2023-04-12T03:31:08.769Z,11.10
2023-04-12T03:33:43.155Z,7.88
2023-04-12T03:36:22.473Z,6.38
2023-04-12T03:38:57.189Z,8.15
2023-04-12T03:41:26.695Z,6.50
2023-04-12T03:43:55.547Z,13.52
2023-04-12T03:46:24.044Z,10.32
2023-04-12T03:48:58.044Z,6.63
2023-04-12T03:51:30.703Z,8.85
2023-04-12T03:54:04.639Z,7.63
2023-04-12T03:56:47.861Z,8.23
2023-04-12T03:59:49.320Z,7.97
2023-04-12T04:02:22.925Z,6.97
2023-04-12T04:04:54.349Z,10.02
2023-04-12T04:07:29.476Z,7.82
2023-04-12T04:09:58.260Z,11.82
2023-04-12T04:12:30.911Z,9.05
2023-04-12T04:14:59.447Z,11.18
2023-04-12T04:17:32.699Z,11.10
2023-04-12T04:20:01.390Z,10.50
2023-04-12T04:22:34.721Z,8.48
2023-04-12T04:25:06.900Z,13.55
2023-04-12T04:27:38.559Z,10.20
2023-04-12T04:30:10.650Z,11.20
2023-04-12T04:32:44.346Z,17.63
2023-04-12T04:35:16.926Z,14.18
2023-04-12T04:38:03.670Z,15.73
2023-04-12T04:40:58.839Z,12.07
2023-04-12T04:43:42.742Z,13.85
2023-04-12T04:46:11.856Z,12.75
2023-04-12T04:48:41.191Z,8.90
2023-04-12T04:51:09.579Z,23.10
2023-04-12T04:53:39.168Z,12.38
2023-04-12T04:56:09.199Z,10.73
2023-04-12T04:58:37.813Z,12.77
2023-04-12T05:01:08.600Z,9.38
2023-04-12T05:03:37.949Z,10.88
2023-04-12T05:06:06.924Z,10.35
2023-04-12T05:08:36.286Z,12.40
2023-04-12T05:11:06.944Z,11.50
2023-04-12T05:13:36.118Z,10.05
2023-04-12T05:16:08.154Z,13.63
2023-04-12T05:18:36.698Z,13.68
2023-04-12T05:21:05.878Z,13.65
2023-04-12T05:23:38.025Z,13.45
2023-04-12T05:26:08.695Z,11.77
2023-04-12T05:28:37.594Z,14.25
2023-04-12T05:31:14.353Z,9.70
2023-04-12T05:33:42.509Z,12.30
2023-04-12T05:36:11.333Z,12.35
2023-04-12T05:38:39.812Z,13.68
2023-04-12T05:41:14.357Z,12.98
2023-04-12T05:43:42.895Z,17.48
2023-04-12T05:46:11.942Z,14.35
2023-04-12T05:48:40.747Z,18.42
2023-04-12T05:51:09.026Z,18.35
2023-04-12T05:53:37.885Z,15.85
2023-04-12T05:56:08.681Z,17.30
2023-04-12T05:58:38.125Z,17.15
2023-04-12T06:01:07.575Z,16.05
2023-04-12T06:03:36.235Z,16.10
2023-04-12T06:06:09.995Z,15.55
2023-04-12T06:08:39.502Z,13.68
2023-04-12T06:11:11.504Z,21.05
2023-04-12T06:13:41.545Z,12.63
2023-04-12T06:16:10.301Z,10.73
2023-04-12T06:18:38.981Z,12.10
2023-04-12T06:21:07.326Z,11.80
2023-04-12T06:23:36.479Z,12.80
2023-04-12T06:26:05.607Z,8.32
2023-04-12T06:28:34.829Z,10.82
2023-04-12T06:31:04.597Z,9.52
2023-04-12T06:33:37.811Z,10.70
2023-04-12T06:36:11.512Z,8.68
2023-04-12T06:38:40.331Z,10.23
2023-04-12T06:41:08.750Z,11.65
2023-04-12T06:43:37.692Z,7.55
2023-04-12T06:46:09.226Z,9.68
2023-04-12T06:48:37.436Z,11.18
2023-04-12T06:51:06.458Z,12.05
2023-04-12T06:53:35.203Z,14.45
2023-04-12T06:56:05.252Z,12.27
2023-04-12T06:58:33.713Z,12.55
2023-04-12T07:01:07.945Z,15.68
2023-04-12T07:03:37.009Z,14.70
2023-04-12T07:06:17.810Z,8.65
2023-04-12T07:08:53.199Z,12.43
2023-04-12T07:11:23.122Z,13.52
2023-04-12T07:13:52.103Z,11.07
2023-04-12T07:16:21.495Z,17.08
2023-04-12T07:18:49.864Z,6.25
2023-04-12T07:21:18.880Z,10.75
2023-04-12T07:23:51.251Z,6.47
2023-04-12T07:26:20.195Z,4.15
2023-04-12T07:28:48.294Z,5.00
2023-04-12T07:31:16.440Z,4.68
2023-04-12T07:33:46.364Z,6.15
2023-04-12T07:36:16.733Z,5.07
2023-04-12T07:38:45.280Z,6.20
2023-04-12T07:41:13.514Z,6.47
2023-04-12T07:43:41.758Z,3.47
2023-04-12T07:46:10.629Z,4.65
2023-04-12T07:48:39.121Z,4.88
2023-04-12T07:51:09.433Z,5.53
2023-04-12T07:53:37.495Z,5.18
2023-04-12T07:56:07.167Z,5.43
2023-04-12T07:58:35.679Z,9.48
2023-04-12T08:01:04.332Z,9.68
2023-04-12T08:03:32.750Z,4.70
2023-04-12T08:06:01.691Z,5.57
2023-04-12T08:08:31.617Z,4.15
2023-04-12T08:10:59.779Z,4.70
2023-04-12T08:13:27.795Z,5.78
2023-04-12T08:15:56.249Z,6.82
2023-04-12T08:18:24.589Z,3.88
2023-04-12T08:20:52.747Z,2.45
2023-04-12T08:23:21.492Z,5.53
2023-04-12T08:25:51.476Z,3.15
2023-04-12T08:28:19.699Z,7.88
2023-04-12T08:30:47.848Z,5.03
2023-04-12T08:33:17.357Z,5.93
2023-04-12T08:35:46.309Z,4.05
2023-04-12T08:38:14.687Z,5.47
2023-04-12T08:40:46.601Z,4.30
2023-04-12T08:43:18.999Z,5.07
2023-04-12T08:45:47.808Z,4.45
2023-04-12T08:48:18.169Z,4.55
2023-04-12T08:50:50.610Z,4.75
2023-04-12T08:53:19.311Z,3.88
2023-04-12T08:55:47.485Z,5.60
2023-04-12T08:58:17.378Z,3.03
2023-04-12T09:00:46.297Z,3.72
2023-04-12T09:03:14.675Z,2.47
2023-04-12T09:05:43.315Z,4.97
2023-04-12T09:08:12.163Z,3.97
2023-04-12T09:10:42.158Z,5.10
2023-04-12T09:13:10.981Z,3.95
2023-04-12T09:15:50.067Z,2.60
2023-04-12T09:18:18.277Z,4.32
2023-04-12T09:20:46.509Z,4.07
2023-04-12T09:23:19.562Z,4.90
2023-04-12T09:25:50.362Z,3.88
2023-04-12T09:28:21.513Z,4.25
2023-04-12T09:30:52.744Z,5.65
2023-04-12T09:33:22.377Z,4.50
2023-04-12T09:35:51.327Z,4.68
2023-04-12T09:38:19.616Z,5.40
2023-04-12T09:40:48.752Z,5.18
2023-04-12T09:43:17.331Z,4.13
2023-04-12T09:45:45.546Z,3.60
2023-04-12T09:48:22.107Z,3.70
2023-04-12T09:50:59.480Z,10.45
2023-04-12T09:53:28.248Z,5.45
2023-04-12T09:55:58.315Z,6.05
2023-04-12T09:58:30.612Z,7.85
2023-04-12T10:01:02.233Z,7.32
2023-04-12T10:03:32.249Z,6.13
2023-04-12T10:06:00.822Z,5.30
2023-04-12T10:08:29.260Z,4.07
2023-04-12T10:10:58.187Z,6.40
2023-04-12T10:13:27.705Z,7.03
2023-04-12T10:15:56.826Z,7.53
2023-04-12T10:18:27.480Z,13.40
2023-04-12T10:20:57.261Z,6.57
2023-04-12T10:23:25.601Z,5.68
2023-04-12T10:25:55.796Z,5.18
2023-04-12T10:28:24.539Z,5.20
2023-04-12T10:30:54.950Z,4.82
2023-04-12T10:33:27.608Z,5.13
2023-04-12T10:36:03.965Z,3.38
2023-04-12T10:38:46.807Z,5.40
2023-04-12T10:41:19.247Z,6.30
2023-04-12T10:43:48.200Z,5.47
2023-04-12T10:46:51.159Z,7.22
2023-04-12T10:49:20.379Z,5.70
2023-04-12T10:52:23.542Z,7.32
2023-04-12T10:54:51.902Z,5.15
2023-04-12T10:57:49.620Z,5.57
2023-04-12T11:00:20.611Z,6.30
2023-04-12T11:03:11.928Z,5.20
2023-04-12T11:06:09.186Z,6.15
2023-04-12T11:09:20.677Z,3.38
2023-04-12T11:11:49.561Z,4.20
2023-04-12T11:14:18.283Z,4.63
2023-04-12T11:17:22.652Z,6.05
2023-04-12T11:19:57.603Z,4.47
2023-04-12T11:22:29.232Z,7.10
2023-04-12T11:25:00.503Z,4.38
2023-04-12T11:27:31.970Z,6.95
2023-04-12T11:30:02.083Z,5.70
2023-04-12T11:32:32.358Z,6.53
2023-04-12T11:35:00.523Z,4.53
2023-04-12T11:37:33.854Z,5.00
2023-04-12T11:40:06.646Z,6.45
2023-04-12T11:42:35.238Z,4.60
2023-04-12T11:45:10.281Z,5.63
2023-04-12T11:47:44.870Z,5.22
2023-04-12T11:50:13.400Z,8.55
2023-04-12T11:52:42.373Z,5.43
2023-04-12T11:55:12.689Z,6.72
2023-04-12T11:57:40.821Z,5.00
2023-04-12T12:00:10.921Z,4.97
2023-04-12T12:02:52.306Z,7.80
2023-04-12T12:05:30.734Z,6.28
2023-04-12T12:08:01.255Z,6.85
2023-04-12T12:10:43.758Z,13.02
2023-04-12T12:13:15.470Z,7.32
2023-04-12T12:15:46.428Z,3.72
2023-04-12T12:18:14.619Z,9.77
2023-04-12T12:20:43.861Z,6.85
2023-04-12T12:23:12.329Z,5.22
2023-04-12T12:25:47.164Z,9.05
2023-04-12T12:28:16.061Z,4.95
2023-04-12T12:30:44.379Z,6.57
2023-04-12T12:33:14.106Z,7.72
2023-04-12T12:35:42.241Z,7.50
2023-04-12T12:38:11.702Z,6.20
2023-04-12T12:40:41.637Z,6.20
2023-04-12T12:43:19.825Z,7.78
2023-04-12T12:45:48.114Z,7.30
2023-04-12T12:48:16.610Z,7.47
2023-04-12T12:50:45.175Z,6.85
2023-04-12T12:53:13.385Z,8.70
2023-04-12T12:55:43.422Z,8.90
2023-04-12T12:58:11.592Z,8.32
2023-04-12T13:00:41.379Z,5.45
2023-04-12T13:03:10.140Z,4.97
2023-04-12T13:05:38.762Z,12.27
2023-04-12T13:08:06.902Z,10.68
2023-04-12T13:10:35.155Z,6.60
2023-04-12T13:13:05.164Z,11.15
2023-04-12T13:15:33.728Z,5.78
2023-04-12T13:18:02.163Z,5.18
2023-04-12T13:20:33.175Z,7.57
2023-04-12T13:23:01.831Z,7.78
2023-04-12T13:25:30.128Z,10.73
2023-04-12T13:27:58.423Z,11.07
2023-04-12T13:30:28.305Z,5.43
2023-04-12T13:32:56.647Z,22.23
2023-04-12T13:35:24.631Z,7.20
2023-04-12T13:37:53.142Z,7.85
2023-04-12T13:40:21.853Z,11.43
2023-04-12T13:42:50.060Z,5.28
2023-04-12T13:45:18.247Z,5.47
2023-04-12T13:47:47.946Z,6.75
2023-04-12T13:50:16.118Z,5.22
2023-04-12T13:52:44.353Z,8.10
2023-04-12T13:55:12.509Z,6.53
2023-04-12T13:57:40.715Z,7.50
2023-04-12T14:00:10.317Z,9.00
2023-04-12T14:02:38.597Z,6.70
2023-04-12T14:05:09.679Z,10.52
2023-04-12T14:07:37.679Z,6.10
2023-04-12T14:10:06.628Z,6.53
2023-04-12T14:12:34.725Z,6.55
2023-04-12T14:15:02.972Z,7.63
2023-04-12T14:17:33.027Z,5.22
2023-04-12T14:20:01.467Z,4.88
2023-04-12T14:22:31.571Z,7.00
2023-04-12T14:24:59.784Z,7.85
2023-04-12T14:27:28.236Z,6.45
2023-04-12T14:29:56.766Z,7.43
2023-04-12T14:32:25.315Z,7.63
2023-04-12T14:34:53.566Z,8.82
2023-04-12T14:37:22.007Z,9.23
2023-04-12T14:39:52.477Z,6.18
2023-04-12T14:42:20.964Z,4.93
2023-04-12T14:44:49.010Z,5.35
2023-04-12T14:47:17.374Z,10.80
2023-04-12T14:49:45.572Z,6.50
2023-04-12T14:52:13.807Z,6.40
2023-04-12T14:54:41.948Z,5.10
2023-04-12T14:57:12.545Z,8.85
2023-04-12T14:59:41.008Z,7.53
2023-04-12T15:02:09.304Z,3.30
2023-04-12T15:04:37.840Z,5.55
2023-04-12T15:07:06.167Z,5.22
2023-04-12T15:09:34.396Z,5.25
2023-04-12T15:12:02.441Z,5.30
2023-04-12T15:14:32.121Z,4.97
2023-04-12T15:17:00.308Z,4.20
2023-04-12T15:19:28.667Z,4.13
2023-04-12T15:21:57.090Z,6.00
2023-04-12T15:24:26.173Z,2.85
2023-04-12T15:26:54.653Z,4.80
2023-04-12T15:29:24.694Z,5.13
2023-04-12T15:31:56.152Z,13.07
2023-04-12T15:34:25.317Z,4.30
2023-04-12T15:36:53.564Z,5.13
2023-04-12T15:39:22.266Z,5.30
2023-04-12T15:41:50.560Z,4.57
2023-04-12T15:44:18.628Z,4.05
2023-04-12T15:46:56.222Z,4.25
2023-04-12T15:49:37.917Z,3.88
2023-04-12T15:52:06.454Z,3.40
2023-04-12T15:54:35.100Z,3.55
2023-04-12T15:57:09.577Z,3.55
2023-04-12T15:59:38.097Z,2.72
2023-04-12T16:02:09.785Z,2.22
2023-04-12T16:04:40.693Z,5.07
2023-04-12T16:07:09.254Z,9.60
2023-04-12T16:09:39.717Z,4.53
2023-04-12T16:12:08.152Z,8.95
2023-04-12T16:14:37.140Z,7.22
2023-04-12T16:17:05.614Z,7.32
2023-04-12T16:19:33.710Z,5.25
2023-04-12T16:22:03.916Z,6.05
2023-04-12T16:24:32.092Z,3.40
2023-04-12T16:27:00.688Z,4.20
2023-04-12T16:29:29.124Z,2.55
2023-04-12T16:31:57.922Z,3.80
2023-04-12T16:34:26.545Z,3.17
2023-04-12T16:36:54.798Z,3.80
2023-04-12T16:39:24.506Z,3.22
2023-04-12T16:41:52.625Z,7.30
2023-04-12T16:44:21.164Z,5.85
2023-04-12T16:46:49.219Z,4.38
2023-04-12T16:49:19.645Z,4.00
2023-04-12T16:51:48.124Z,5.22
2023-04-12T16:54:16.591Z,3.60
2023-04-12T16:56:47.439Z,5.70
2023-04-12T16:59:15.698Z,6.05
2023-04-12T17:01:44.350Z,5.35
2023-04-12T17:04:13.265Z,4.18
2023-04-12T17:06:44.512Z,2.60
2023-04-12T17:09:13.386Z,4.05
2023-04-12T17:11:42.121Z,5.57
2023-04-12T17:14:13.997Z,3.38
2023-04-12T17:17:12.225Z,5.45
2023-04-12T17:19:45.399Z,5.70
2023-04-12T17:22:14.414Z,5.82
2023-04-12T17:24:43.837Z,5.13
2023-04-12T17:27:12.470Z,4.57
2023-04-12T17:29:43.078Z,7.15
2023-04-12T17:32:13.056Z,2.97
2023-04-12T17:34:42.520Z,4.88
2023-04-12T17:37:10.863Z,7.30
2023-04-12T17:39:39.026Z,4.53
2023-04-12T17:42:07.242Z,5.97
2023-04-12T17:44:35.696Z,6.63
2023-04-12T17:47:05.525Z,5.05
2023-04-12T17:49:35.857Z,5.78
2023-04-12T17:52:04.543Z,5.65
2023-04-12T17:54:33.602Z,6.35
2023-04-12T17:57:02.387Z,3.50
2023-04-12T17:59:30.685Z,5.05
2023-04-12T18:01:59.014Z,5.13
2023-04-12T18:04:29.204Z,4.93
2023-04-12T18:06:58.227Z,7.72
2023-04-12T18:09:27.393Z,5.07
2023-04-12T18:11:56.692Z,3.08
2023-04-12T18:14:25.026Z,2.28
2023-04-12T18:16:54.069Z,4.35
2023-04-12T18:19:23.232Z,5.75
2023-04-12T18:21:53.329Z,5.10
2023-04-12T18:24:21.713Z,4.97
2023-04-12T18:26:51.196Z,4.10
2023-04-12T18:29:19.622Z,3.53
2023-04-12T18:31:47.875Z,4.07
2023-04-12T18:34:18.971Z,6.68
2023-04-12T18:36:47.674Z,6.00
2023-04-12T18:39:17.878Z,2.45
2023-04-12T18:41:46.315Z,5.63
2023-04-12T18:44:15.729Z,5.03
2023-04-12T18:46:43.975Z,4.57
2023-04-12T18:49:12.073Z,7.78
2023-04-12T18:51:40.202Z,6.53
2023-04-12T18:54:12.931Z,6.30
2023-04-12T18:56:43.295Z,2.97
2023-04-12T18:59:17.655Z,4.05
2023-04-12T19:01:46.470Z,8.02
2023-04-12T19:04:16.568Z,3.90
2023-04-12T19:06:45.335Z,5.40
2023-04-12T19:09:13.727Z,4.03
2023-04-12T19:11:43.623Z,5.72
2023-04-12T19:14:12.014Z,4.82
2023-04-12T19:16:40.530Z,10.10
2023-04-12T19:19:09.109Z,6.72
2023-04-12T19:21:37.926Z,5.80
2023-04-12T19:24:06.937Z,3.95
2023-04-12T19:26:36.926Z,3.60
2023-04-12T19:29:07.156Z,4.38
2023-04-12T19:31:36.083Z,4.05
2023-04-12T19:34:05.647Z,4.60
2023-04-12T19:36:34.559Z,5.05
2023-04-12T19:39:02.743Z,4.30
2023-04-12T19:41:31.570Z,3.08
2023-04-12T19:43:59.858Z,6.28
2023-04-12T19:46:29.865Z,5.55
2023-04-12T19:48:59.043Z,4.18
2023-04-12T19:51:27.589Z,4.13
2023-04-12T19:53:55.697Z,7.00
2023-04-12T19:56:24.495Z,9.48
2023-04-12T19:58:54.655Z,3.78
2023-04-12T20:01:22.784Z,3.83
2023-04-12T20:03:53.456Z,3.17
2023-04-12T20:06:22.153Z,3.72
2023-04-12T20:08:50.317Z,5.80
2023-04-12T20:11:18.874Z,6.80
2023-04-12T20:13:47.076Z,3.28
2023-04-12T20:16:16.443Z,3.45
2023-04-12T20:18:44.813Z,4.00
2023-04-12T20:21:14.169Z,5.20
2023-04-12T20:23:43.442Z,3.85
2023-04-12T20:26:11.528Z,5.10
2023-04-12T20:28:40.042Z,3.65
2023-04-12T20:31:36.961Z,3.58
2023-04-12T20:34:30.418Z,4.53
2023-04-12T20:37:00.238Z,5.22
2023-04-12T20:39:29.579Z,3.88
2023-04-12T20:42:01.244Z,8.32
2023-04-12T20:44:29.624Z,3.10
2023-04-12T20:46:58.717Z,5.10
2023-04-12T20:49:28.056Z,3.15
2023-04-12T20:51:57.225Z,5.10
2023-04-12T20:54:30.012Z,2.13
2023-04-12T20:57:00.124Z,3.30
2023-04-12T20:59:30.531Z,3.28
2023-04-12T21:01:59.448Z,8.93
2023-04-12T21:04:28.918Z,5.30
2023-04-12T21:06:57.668Z,6.60
2023-04-12T21:09:27.929Z,5.22
2023-04-12T21:11:58.049Z,6.65
2023-04-12T21:14:28.600Z,7.60
2023-04-12T21:17:01.675Z,3.38
2023-04-12T21:19:33.498Z,5.82
2023-04-12T21:22:05.493Z,6.20
2023-04-12T21:24:39.177Z,4.50
2023-04-12T21:27:08.947Z,5.13
2023-04-12T21:29:41.706Z,5.00
2023-04-12T21:32:10.936Z,3.53
2023-04-12T21:34:41.305Z,4.38
2023-04-12T21:37:13.488Z,6.25
2023-04-12T21:39:47.021Z,9.32
2023-04-12T21:42:19.174Z,5.43
2023-04-12T21:44:51.334Z,6.10
2023-04-12T21:47:22.700Z,7.05
2023-04-12T21:49:56.414Z,6.60
2023-04-12T21:52:31.717Z,7.82
2023-04-12T21:55:04.149Z,5.95
2023-04-12T21:57:36.211Z,8.05
2023-04-12T22:00:08.808Z,5.05
2023-04-12T22:03:14.705Z,6.95
2023-04-12T22:05:51.155Z,7.50
2023-04-12T22:08:26.292Z,5.38
2023-04-12T22:10:55.965Z,6.63
2023-04-12T22:13:25.017Z,6.00
2023-04-12T22:15:53.718Z,6.05
2023-04-12T22:18:22.122Z,4.45
2023-04-12T22:20:51.034Z,6.00
2023-04-12T22:23:19.514Z,6.07
2023-04-12T22:25:49.636Z,5.65
2023-04-12T22:28:19.200Z,3.25
2023-04-12T22:30:48.663Z,5.40
2023-04-12T22:33:17.523Z,7.13
2023-04-12T22:35:46.455Z,6.68
2023-04-12T22:38:15.802Z,7.88
2023-04-12T22:40:43.898Z,11.02
2023-04-12T22:43:18.322Z,7.78
2023-04-12T22:45:48.364Z,5.65
2023-04-12T22:48:16.656Z,5.18
2023-04-12T22:50:45.852Z,12.25
2023-04-12T22:53:14.178Z,7.47
2023-04-12T22:55:43.257Z,10.95
2023-04-12T22:58:11.458Z,10.43
2023-04-12T23:00:40.504Z,7.13
2023-04-12T23:03:11.341Z,5.22
2023-04-12T23:05:44.923Z,5.22
2023-04-12T23:08:14.832Z,5.22
2023-04-12T23:10:43.289Z,5.90
2023-04-12T23:13:12.182Z,4.60
2023-04-12T23:15:41.560Z,7.65
2023-04-12T23:18:12.362Z,5.70
2023-04-12T23:20:40.677Z,6.15
2023-04-12T23:23:10.169Z,6.78
2023-04-12T23:25:42.025Z,4.80
2023-04-12T23:28:13.518Z,4.57
2023-04-12T23:30:44.557Z,6.40
2023-04-12T23:33:14.620Z,5.03
2023-04-12T23:35:43.852Z,8.80
2023-04-12T23:38:15.857Z,7.15
2023-04-12T23:40:44.357Z,5.15
2023-04-12T23:43:12.740Z,5.25
2023-04-12T23:45:41.543Z,6.10
2023-04-12T23:48:09.751Z,9.50
2023-04-12T23:50:40.541Z,3.95
2023-04-12T23:53:08.880Z,5.85
2023-04-12T23:55:37.118Z,6.25
2023-04-12T23:58:05.546Z,15.50
